sensor_id;sensor_type;location;lat;lon;timestamp;temperature;humidity
29403;DHT22;16382;59.942;30.472;2023-11-21T00:01:03;-2.10;68.00
29403;DHT22;16382;59.942;30.472;2023-11-21T00:03:31;-2.10;68.00
29403;DHT22;16382;59.942;30.472;2023-11-21T00:05:59;-2.00;68.00
29403;DHT22;16382;59.942;30.472;2023-11-21T00:08:29;-2.00;67.80
29403;DHT22;16382;59.942;30.472;2023-11-21T00:10:57;-2.00;67.50
29403;DHT22;16382;59.942;30.472;2023-11-21T00:13:26;-2.00;67.60
29403;DHT22;16382;59.942;30.472;2023-11-21T00:15:54;-2.00;67.40
29403;DHT22;16382;59.942;30.472;2023-11-21T00:18:22;-2.00;67.60
29403;DHT22;16382;59.942;30.472;2023-11-21T00:20:50;-2.00;67.30
29403;DHT22;16382;59.942;30.472;2023-11-21T00:23:20;-2.00;67.60
29403;DHT22;16382;59.942;30.472;2023-11-21T00:25:49;-2.00;67.60
29403;DHT22;16382;59.942;30.472;2023-11-21T00:28:17;-2.00;67.70
29403;DHT22;16382;59.942;30.472;2023-11-21T00:30:45;-2.00;67.80
29403;DHT22;16382;59.942;30.472;2023-11-21T00:33:14;-2.00;67.80
29403;DHT22;16382;59.942;30.472;2023-11-21T00:35:41;-2.00;67.90
29403;DHT22;16382;59.942;30.472;2023-11-21T00:38:09;-2.00;67.80
29403;DHT22;16382;59.942;30.472;2023-11-21T00:40:36;-2.00;67.80
29403;DHT22;16382;59.942;30.472;2023-11-21T00:43:05;-2.00;67.90
29403;DHT22;16382;59.942;30.472;2023-11-21T00:45:33;-1.90;67.90
29403;DHT22;16382;59.942;30.472;2023-11-21T00:48:02;-1.90;67.70
29403;DHT22;16382;59.942;30.472;2023-11-21T00:50:30;-2.00;67.70
29403;DHT22;16382;59.942;30.472;2023-11-21T00:52:58;-1.90;67.60
29403;DHT22;16382;59.942;30.472;2023-11-21T00:55:26;-2.10;67.60
29403;DHT22;16382;59.942;30.472;2023-11-21T00:57:54;-2.10;67.90
29403;DHT22;16382;59.942;30.472;2023-11-21T01:00:23;-2.10;68.00
29403;DHT22;16382;59.942;30.472;2023-11-21T01:02:50;-2.10;68.10
29403;DHT22;16382;59.942;30.472;2023-11-21T01:05:18;-2.10;68.10
29403;DHT22;16382;59.942;30.472;2023-11-21T01:07:46;-2.10;68.00
29403;DHT22;16382;59.942;30.472;2023-11-21T01:10:14;-2.10;68.30
29403;DHT22;16382;59.942;30.472;2023-11-21T01:12:44;-2.10;68.20
29403;DHT22;16382;59.942;30.472;2023-11-21T01:15:11;-2.10;68.30
29403;DHT22;16382;59.942;30.472;2023-11-21T01:17:40;-2.10;68.40
29403;DHT22;16382;59.942;30.472;2023-11-21T01:20:09;-2.10;68.70
29403;DHT22;16382;59.942;30.472;2023-11-21T01:22:39;-2.10;68.40
29403;DHT22;16382;59.942;30.472;2023-11-21T01:25:07;-2.10;68.50
29403;DHT22;16382;59.942;30.472;2023-11-21T01:27:35;-2.00;68.10
29403;DHT22;16382;59.942;30.472;2023-11-21T01:30:04;-2.10;68.30
29403;DHT22;16382;59.942;30.472;2023-11-21T01:32:34;-2.10;68.40
29403;DHT22;16382;59.942;30.472;2023-11-21T01:35:05;-2.10;68.10
29403;DHT22;16382;59.942;30.472;2023-11-21T01:37:33;-2.10;67.80
29403;DHT22;16382;59.942;30.472;2023-11-21T01:40:00;-2.10;67.90
29403;DHT22;16382;59.942;30.472;2023-11-21T01:42:29;-2.00;68.00
29403;DHT22;16382;59.942;30.472;2023-11-21T01:44:56;-2.00;67.90
29403;DHT22;16382;59.942;30.472;2023-11-21T01:47:25;-2.00;67.80
29403;DHT22;16382;59.942;30.472;2023-11-21T01:49:53;-2.00;67.70
29403;DHT22;16382;59.942;30.472;2023-11-21T01:52:23;-2.00;67.80
29403;DHT22;16382;59.942;30.472;2023-11-21T01:54:52;-2.00;67.80
29403;DHT22;16382;59.942;30.472;2023-11-21T01:57:20;-2.00;67.70
29403;DHT22;16382;59.942;30.472;2023-11-21T01:59:49;-2.00;67.80
29403;DHT22;16382;59.942;30.472;2023-11-21T02:02:16;-2.00;67.90
29403;DHT22;16382;59.942;30.472;2023-11-21T02:04:45;-1.90;67.70
29403;DHT22;16382;59.942;30.472;2023-11-21T02:07:12;-1.90;67.60
29403;DHT22;16382;59.942;30.472;2023-11-21T02:09:41;-1.90;68.40
29403;DHT22;16382;59.942;30.472;2023-11-21T02:12:09;-1.90;67.80
29403;DHT22;16382;59.942;30.472;2023-11-21T02:14:39;-1.90;67.50
29403;DHT22;16382;59.942;30.472;2023-11-21T02:17:06;-1.90;68.50
29403;DHT22;16382;59.942;30.472;2023-11-21T02:19:34;-1.90;68.00
29403;DHT22;16382;59.942;30.472;2023-11-21T02:22:21;-1.90;67.90
29403;DHT22;16382;59.942;30.472;2023-11-21T02:24:53;-1.80;67.60
29403;DHT22;16382;59.942;30.472;2023-11-21T02:27:21;-1.90;67.80
29403;DHT22;16382;59.942;30.472;2023-11-21T02:29:49;-1.90;67.90
29403;DHT22;16382;59.942;30.472;2023-11-21T02:32:17;-1.90;67.90
29403;DHT22;16382;59.942;30.472;2023-11-21T02:34:45;-1.80;67.80
29403;DHT22;16382;59.942;30.472;2023-11-21T02:37:13;-1.80;67.60
29403;DHT22;16382;59.942;30.472;2023-11-21T02:39:40;-1.80;68.50
29403;DHT22;16382;59.942;30.472;2023-11-21T02:42:09;-1.90;67.40
29403;DHT22;16382;59.942;30.472;2023-11-21T02:44:37;-1.90;67.40
29403;DHT22;16382;59.942;30.472;2023-11-21T02:47:04;-1.90;67.40
29403;DHT22;16382;59.942;30.472;2023-11-21T02:49:32;-1.90;67.60
29403;DHT22;16382;59.942;30.472;2023-11-21T02:52:00;-1.90;67.90
29403;DHT22;16382;59.942;30.472;2023-11-21T02:54:28;-1.90;67.80
29403;DHT22;16382;59.942;30.472;2023-11-21T02:56:56;-1.90;67.70
29403;DHT22;16382;59.942;30.472;2023-11-21T02:59:26;-1.80;67.90
29403;DHT22;16382;59.942;30.472;2023-11-21T03:01:53;-1.90;68.00
29403;DHT22;16382;59.942;30.472;2023-11-21T03:04:23;-1.90;68.30
29403;DHT22;16382;59.942;30.472;2023-11-21T03:06:53;-1.90;68.20
29403;DHT22;16382;59.942;30.472;2023-11-21T03:09:20;-1.90;68.30
29403;DHT22;16382;59.942;30.472;2023-11-21T03:11:54;-1.90;68.40
29403;DHT22;16382;59.942;30.472;2023-11-21T03:14:23;-2.00;68.80
29403;DHT22;16382;59.942;30.472;2023-11-21T03:17:06;-2.00;68.90
29403;DHT22;16382;59.942;30.472;2023-11-21T03:19:34;-1.90;69.20
29403;DHT22;16382;59.942;30.472;2023-11-21T03:22:01;-1.90;68.70
29403;DHT22;16382;59.942;30.472;2023-11-21T03:24:30;-1.90;68.90
29403;DHT22;16382;59.942;30.472;2023-11-21T03:26:57;-1.80;68.60
29403;DHT22;16382;59.942;30.472;2023-11-21T03:29:26;-1.80;68.60
29403;DHT22;16382;59.942;30.472;2023-11-21T03:31:54;-1.80;68.10
29403;DHT22;16382;59.942;30.472;2023-11-21T03:34:24;-1.80;68.00
29403;DHT22;16382;59.942;30.472;2023-11-21T03:36:54;-1.80;67.90
29403;DHT22;16382;59.942;30.472;2023-11-21T03:39:22;-1.80;67.90
29403;DHT22;16382;59.942;30.472;2023-11-21T03:41:51;-1.70;67.60
29403;DHT22;16382;59.942;30.472;2023-11-21T03:44:19;-1.80;67.10
29403;DHT22;16382;59.942;30.472;2023-11-21T03:46:48;-1.80;67.70
29403;DHT22;16382;59.942;30.472;2023-11-21T03:49:15;-1.80;67.80
29403;DHT22;16382;59.942;30.472;2023-11-21T03:51:43;-1.80;67.90
29403;DHT22;16382;59.942;30.472;2023-11-21T03:54:11;-1.80;68.20
29403;DHT22;16382;59.942;30.472;2023-11-21T03:56:41;-1.80;68.10
29403;DHT22;16382;59.942;30.472;2023-11-21T03:59:09;-1.80;67.90
29403;DHT22;16382;59.942;30.472;2023-11-21T04:01:38;-1.80;67.50
29403;DHT22;16382;59.942;30.472;2023-11-21T04:04:08;-1.80;67.30
29403;DHT22;16382;59.942;30.472;2023-11-21T04:06:35;-1.80;67.30
29403;DHT22;16382;59.942;30.472;2023-11-21T04:09:05;-1.80;67.60
29403;DHT22;16382;59.942;30.472;2023-11-21T04:11:33;-1.90;67.90
29403;DHT22;16382;59.942;30.472;2023-11-21T04:14:19;-1.80;67.40
29403;DHT22;16382;59.942;30.472;2023-11-21T04:16:46;-1.90;67.30
29403;DHT22;16382;59.942;30.472;2023-11-21T04:19:16;-1.90;67.50
29403;DHT22;16382;59.942;30.472;2023-11-21T04:21:43;-1.90;67.60
29403;DHT22;16382;59.942;30.472;2023-11-21T04:24:12;-1.90;67.50
29403;DHT22;16382;59.942;30.472;2023-11-21T04:26:40;-1.90;67.50
29403;DHT22;16382;59.942;30.472;2023-11-21T04:29:10;-1.90;67.50
29403;DHT22;16382;59.942;30.472;2023-11-21T04:31:38;-2.00;67.50
29403;DHT22;16382;59.942;30.472;2023-11-21T04:34:05;-2.00;67.50
29403;DHT22;16382;59.942;30.472;2023-11-21T04:36:35;-2.10;67.50
29403;DHT22;16382;59.942;30.472;2023-11-21T04:39:03;-2.30;67.80
29403;DHT22;16382;59.942;30.472;2023-11-21T04:41:32;-2.30;68.10
29403;DHT22;16382;59.942;30.472;2023-11-21T04:44:03;-2.40;68.20
29403;DHT22;16382;59.942;30.472;2023-11-21T04:46:31;-2.50;68.70
29403;DHT22;16382;59.942;30.472;2023-11-21T04:48:58;-2.60;69.00
29403;DHT22;16382;59.942;30.472;2023-11-21T04:51:26;-2.70;69.10
29403;DHT22;16382;59.942;30.472;2023-11-21T04:54:15;-2.80;69.50
29403;DHT22;16382;59.942;30.472;2023-11-21T04:56:43;-2.90;69.70
29403;DHT22;16382;59.942;30.472;2023-11-21T04:59:11;-2.90;70.00
29403;DHT22;16382;59.942;30.472;2023-11-21T05:01:39;-3.00;70.20
29403;DHT22;16382;59.942;30.472;2023-11-21T05:04:07;-3.00;70.40
29403;DHT22;16382;59.942;30.472;2023-11-21T05:06:35;-3.10;70.60
29403;DHT22;16382;59.942;30.472;2023-11-21T05:09:03;-3.10;70.60
29403;DHT22;16382;59.942;30.472;2023-11-21T05:11:32;-3.20;70.70
29403;DHT22;16382;59.942;30.472;2023-11-21T05:14:00;-3.20;70.90
29403;DHT22;16382;59.942;30.472;2023-11-21T05:16:27;-3.20;70.90
29403;DHT22;16382;59.942;30.472;2023-11-21T05:18:55;-3.20;71.00
29403;DHT22;16382;59.942;30.472;2023-11-21T05:21:26;-3.30;71.00
29403;DHT22;16382;59.942;30.472;2023-11-21T05:23:55;-3.30;71.20
29403;DHT22;16382;59.942;30.472;2023-11-21T05:26:23;-3.30;71.10
29403;DHT22;16382;59.942;30.472;2023-11-21T05:28:52;-3.30;71.10
29403;DHT22;16382;59.942;30.472;2023-11-21T05:31:20;-3.40;71.20
29403;DHT22;16382;59.942;30.472;2023-11-21T05:33:48;-3.40;71.40
29403;DHT22;16382;59.942;30.472;2023-11-21T05:36:15;-3.40;71.10
29403;DHT22;16382;59.942;30.472;2023-11-21T05:38:44;-3.40;70.80
29403;DHT22;16382;59.942;30.472;2023-11-21T05:41:13;-3.40;70.70
29403;DHT22;16382;59.942;30.472;2023-11-21T05:43:41;-3.40;70.50
29403;DHT22;16382;59.942;30.472;2023-11-21T05:46:10;-3.40;70.60
29403;DHT22;16382;59.942;30.472;2023-11-21T05:48:39;-3.40;70.60
29403;DHT22;16382;59.942;30.472;2023-11-21T05:51:07;-3.40;70.10
29403;DHT22;16382;59.942;30.472;2023-11-21T05:53:35;-3.40;69.80
29403;DHT22;16382;59.942;30.472;2023-11-21T05:56:03;-3.40;69.70
29403;DHT22;16382;59.942;30.472;2023-11-21T05:58:31;-3.50;69.40
29403;DHT22;16382;59.942;30.472;2023-11-21T06:00:59;-3.50;69.30
29403;DHT22;16382;59.942;30.472;2023-11-21T06:03:28;-3.50;69.30
29403;DHT22;16382;59.942;30.472;2023-11-21T06:05:59;-3.50;69.10
29403;DHT22;16382;59.942;30.472;2023-11-21T06:08:27;-3.50;69.00
29403;DHT22;16382;59.942;30.472;2023-11-21T06:10:54;-3.50;68.70
29403;DHT22;16382;59.942;30.472;2023-11-21T06:13:22;-3.50;68.30
29403;DHT22;16382;59.942;30.472;2023-11-21T06:15:50;-3.50;67.90
29403;DHT22;16382;59.942;30.472;2023-11-21T06:18:19;-3.60;67.40
29403;DHT22;16382;59.942;30.472;2023-11-21T06:20:48;-3.60;67.20
29403;DHT22;16382;59.942;30.472;2023-11-21T06:23:16;-3.60;67.70
29403;DHT22;16382;59.942;30.472;2023-11-21T06:25:43;-3.60;67.50
29403;DHT22;16382;59.942;30.472;2023-11-21T06:28:11;-3.70;67.10
29403;DHT22;16382;59.942;30.472;2023-11-21T06:30:39;-3.70;66.50
29403;DHT22;16382;59.942;30.472;2023-11-21T06:33:08;-3.60;66.60
29403;DHT22;16382;59.942;30.472;2023-11-21T06:35:37;-3.60;66.20
29403;DHT22;16382;59.942;30.472;2023-11-21T06:38:06;-3.40;65.70
29403;DHT22;16382;59.942;30.472;2023-11-21T06:40:35;-3.40;65.40
29403;DHT22;16382;59.942;30.472;2023-11-21T06:43:02;-3.30;64.80
29403;DHT22;16382;59.942;30.472;2023-11-21T06:45:31;-3.20;64.40
29403;DHT22;16382;59.942;30.472;2023-11-21T06:48:02;-3.10;63.60
29403;DHT22;16382;59.942;30.472;2023-11-21T06:50:32;-3.10;63.30
29403;DHT22;16382;59.942;30.472;2023-11-21T06:53:00;-3.00;63.10
29403;DHT22;16382;59.942;30.472;2023-11-21T06:55:31;-2.90;62.40
29403;DHT22;16382;59.942;30.472;2023-11-21T06:57:58;-2.90;61.50
29403;DHT22;16382;59.942;30.472;2023-11-21T07:00:26;-2.90;61.10
29403;DHT22;16382;59.942;30.472;2023-11-21T07:02:55;-2.80;61.10
29403;DHT22;16382;59.942;30.472;2023-11-21T07:05:23;-2.70;61.10
29403;DHT22;16382;59.942;30.472;2023-11-21T07:07:51;-2.70;61.00
29403;DHT22;16382;59.942;30.472;2023-11-21T07:10:19;-2.70;60.50
29403;DHT22;16382;59.942;30.472;2023-11-21T07:12:49;-2.70;60.60
29403;DHT22;16382;59.942;30.472;2023-11-21T07:15:17;-2.60;60.70
29403;DHT22;16382;59.942;30.472;2023-11-21T07:17:45;-2.60;60.20
29403;DHT22;16382;59.942;30.472;2023-11-21T07:20:14;-2.60;60.10
29403;DHT22;16382;59.942;30.472;2023-11-21T07:22:42;-2.60;59.90
29403;DHT22;16382;59.942;30.472;2023-11-21T07:25:10;-2.60;59.60
29403;DHT22;16382;59.942;30.472;2023-11-21T07:27:43;-2.50;60.30
29403;DHT22;16382;59.942;30.472;2023-11-21T07:30:13;-2.50;59.70
29403;DHT22;16382;59.942;30.472;2023-11-21T07:32:41;-2.50;59.40
29403;DHT22;16382;59.942;30.472;2023-11-21T07:35:10;-2.40;59.00
29403;DHT22;16382;59.942;30.472;2023-11-21T07:37:38;-2.40;58.70
29403;DHT22;16382;59.942;30.472;2023-11-21T07:40:06;-2.30;58.70
29403;DHT22;16382;59.942;30.472;2023-11-21T07:42:37;-2.20;58.50
29403;DHT22;16382;59.942;30.472;2023-11-21T07:45:06;-2.20;58.40
29403;DHT22;16382;59.942;30.472;2023-11-21T07:47:36;-2.20;58.30
29403;DHT22;16382;59.942;30.472;2023-11-21T07:50:08;-2.20;57.90
29403;DHT22;16382;59.942;30.472;2023-11-21T07:52:39;-2.20;57.60
29403;DHT22;16382;59.942;30.472;2023-11-21T07:55:07;-2.10;57.80
29403;DHT22;16382;59.942;30.472;2023-11-21T07:57:35;-2.10;57.90
29403;DHT22;16382;59.942;30.472;2023-11-21T08:00:03;-2.10;57.60
29403;DHT22;16382;59.942;30.472;2023-11-21T08:02:39;-2.00;57.40
29403;DHT22;16382;59.942;30.472;2023-11-21T08:05:08;-2.00;57.10
29403;DHT22;16382;59.942;30.472;2023-11-21T08:07:36;-2.00;57.20
29403;DHT22;16382;59.942;30.472;2023-11-21T08:10:05;-2.10;57.70
29403;DHT22;16382;59.942;30.472;2023-11-21T08:12:36;-2.00;58.50
29403;DHT22;16382;59.942;30.472;2023-11-21T08:15:05;-1.90;58.70
29403;DHT22;16382;59.942;30.472;2023-11-21T08:17:35;-1.90;58.90
29403;DHT22;16382;59.942;30.472;2023-11-21T08:20:04;-1.90;59.00
29403;DHT22;16382;59.942;30.472;2023-11-21T08:22:34;-1.90;59.00
29403;DHT22;16382;59.942;30.472;2023-11-21T08:25:02;-1.80;59.30
29403;DHT22;16382;59.942;30.472;2023-11-21T08:27:30;-1.70;59.40
29403;DHT22;16382;59.942;30.472;2023-11-21T08:29:58;-1.70;59.60
29403;DHT22;16382;59.942;30.472;2023-11-21T08:32:26;-1.70;59.40
29403;DHT22;16382;59.942;30.472;2023-11-21T08:34:53;-1.70;59.70
29403;DHT22;16382;59.942;30.472;2023-11-21T08:37:22;-1.60;59.90
29403;DHT22;16382;59.942;30.472;2023-11-21T08:39:53;-1.60;59.70
29403;DHT22;16382;59.942;30.472;2023-11-21T08:42:21;-1.60;60.00
29403;DHT22;16382;59.942;30.472;2023-11-21T08:44:49;-1.60;59.90
29403;DHT22;16382;59.942;30.472;2023-11-21T08:47:17;-1.50;59.60
29403;DHT22;16382;59.942;30.472;2023-11-21T08:49:44;-1.50;59.90
29403;DHT22;16382;59.942;30.472;2023-11-21T08:52:13;-1.40;59.70
29403;DHT22;16382;59.942;30.472;2023-11-21T08:54:43;-1.30;59.50
29403;DHT22;16382;59.942;30.472;2023-11-21T08:57:11;-1.30;59.50
29403;DHT22;16382;59.942;30.472;2023-11-21T08:59:39;-1.30;59.60
29403;DHT22;16382;59.942;30.472;2023-11-21T09:02:06;-1.20;59.60
29403;DHT22;16382;59.942;30.472;2023-11-21T09:04:34;-1.20;59.50
29403;DHT22;16382;59.942;30.472;2023-11-21T09:07:01;-1.10;59.20
29403;DHT22;16382;59.942;30.472;2023-11-21T09:09:29;-1.10;59.40
29403;DHT22;16382;59.942;30.472;2023-11-21T09:11:58;-1.10;59.50
29403;DHT22;16382;59.942;30.472;2023-11-21T09:14:40;-1.10;59.30
29403;DHT22;16382;59.942;30.472;2023-11-21T09:17:09;-1.10;59.70
29403;DHT22;16382;59.942;30.472;2023-11-21T09:19:38;-1.10;60.00
29403;DHT22;16382;59.942;30.472;2023-11-21T09:22:06;-1.10;60.30
29403;DHT22;16382;59.942;30.472;2023-11-21T09:24:34;-1.20;60.50
29403;DHT22;16382;59.942;30.472;2023-11-21T09:27:04;-1.20;60.20
29403;DHT22;16382;59.942;30.472;2023-11-21T09:29:31;-1.20;60.30
29403;DHT22;16382;59.942;30.472;2023-11-21T09:31:59;-1.20;60.20
29403;DHT22;16382;59.942;30.472;2023-11-21T09:34:27;-1.30;60.60
29403;DHT22;16382;59.942;30.472;2023-11-21T09:36:55;-1.30;60.80
29403;DHT22;16382;59.942;30.472;2023-11-21T09:39:22;-1.40;60.60
29403;DHT22;16382;59.942;30.472;2023-11-21T09:41:51;-1.50;61.00
29403;DHT22;16382;59.942;30.472;2023-11-21T09:44:30;-1.30;61.10
29403;DHT22;16382;59.942;30.472;2023-11-21T09:47:02;-1.00;61.20
29403;DHT22;16382;59.942;30.472;2023-11-21T09:49:33;-1.00;60.10
29403;DHT22;16382;59.942;30.472;2023-11-21T09:52:02;-1.00;60.30
29403;DHT22;16382;59.942;30.472;2023-11-21T09:54:31;-1.10;60.20
29403;DHT22;16382;59.942;30.472;2023-11-21T09:56:59;-1.20;61.20
29403;DHT22;16382;59.942;30.472;2023-11-21T09:59:30;-1.30;62.80
29403;DHT22;16382;59.942;30.472;2023-11-21T10:01:59;-1.30;65.10
29403;DHT22;16382;59.942;30.472;2023-11-21T10:04:27;-1.40;66.00
29403;DHT22;16382;59.942;30.472;2023-11-21T10:06:55;-1.40;66.10
29403;DHT22;16382;59.942;30.472;2023-11-21T10:09:24;-1.30;65.70
29403;DHT22;16382;59.942;30.472;2023-11-21T10:11:54;-1.20;65.50
29403;DHT22;16382;59.942;30.472;2023-11-21T10:14:25;-1.10;65.10
29403;DHT22;16382;59.942;30.472;2023-11-21T10:16:57;-1.00;64.90
29403;DHT22;16382;59.942;30.472;2023-11-21T10:19:25;-0.90;64.60
29403;DHT22;16382;59.942;30.472;2023-11-21T10:21:53;-0.80;64.00
29403;DHT22;16382;59.942;30.472;2023-11-21T10:24:23;-0.90;64.00
29403;DHT22;16382;59.942;30.472;2023-11-21T10:26:51;-1.00;64.60
29403;DHT22;16382;59.942;30.472;2023-11-21T10:29:19;-1.00;64.90
29403;DHT22;16382;59.942;30.472;2023-11-21T10:31:49;-1.10;65.30
29403;DHT22;16382;59.942;30.472;2023-11-21T10:34:19;-1.10;65.60
29403;DHT22;16382;59.942;30.472;2023-11-21T10:36:48;-1.10;66.00
29403;DHT22;16382;59.942;30.472;2023-11-21T10:39:17;-1.10;66.70
29403;DHT22;16382;59.942;30.472;2023-11-21T10:41:45;-1.10;66.30
29403;DHT22;16382;59.942;30.472;2023-11-21T10:44:15;-1.10;66.70
29403;DHT22;16382;59.942;30.472;2023-11-21T10:46:47;-1.10;66.40
29403;DHT22;16382;59.942;30.472;2023-11-21T10:49:18;-1.10;66.90
29403;DHT22;16382;59.942;30.472;2023-11-21T10:51:47;-1.20;67.30
29403;DHT22;16382;59.942;30.472;2023-11-21T10:54:20;-1.20;67.60
29403;DHT22;16382;59.942;30.472;2023-11-21T10:56:49;-1.20;67.20
29403;DHT22;16382;59.942;30.472;2023-11-21T10:59:18;-1.20;66.70
29403;DHT22;16382;59.942;30.472;2023-11-21T11:01:51;-1.20;66.50
29403;DHT22;16382;59.942;30.472;2023-11-21T11:04:20;-1.20;67.20
29403;DHT22;16382;59.942;30.472;2023-11-21T11:06:54;-1.10;66.70
29403;DHT22;16382;59.942;30.472;2023-11-21T11:09:23;-1.10;66.30
29403;DHT22;16382;59.942;30.472;2023-11-21T11:11:51;-1.10;66.30
29403;DHT22;16382;59.942;30.472;2023-11-21T11:14:20;-1.00;66.50
29403;DHT22;16382;59.942;30.472;2023-11-21T11:16:54;-1.00;66.20
29403;DHT22;16382;59.942;30.472;2023-11-21T11:19:23;-0.90;66.40
29403;DHT22;16382;59.942;30.472;2023-11-21T11:22:00;-1.00;66.00
29403;DHT22;16382;59.942;30.472;2023-11-21T11:25:08;-0.90;66.10
29403;DHT22;16382;59.942;30.472;2023-11-21T11:27:57;-0.90;66.20
29403;DHT22;16382;59.942;30.472;2023-11-21T11:30:39;-1.00;66.90
29403;DHT22;16382;59.942;30.472;2023-11-21T11:33:23;-0.90;66.80
29403;DHT22;16382;59.942;30.472;2023-11-21T11:35:59;-0.90;67.00
29403;DHT22;16382;59.942;30.472;2023-11-21T11:38:31;-0.90;67.70
29403;DHT22;16382;59.942;30.472;2023-11-21T11:41:02;-0.90;67.20
29403;DHT22;16382;59.942;30.472;2023-11-21T11:43:31;-0.90;67.10
29403;DHT22;16382;59.942;30.472;2023-11-21T11:46:06;-1.00;66.90
29403;DHT22;16382;59.942;30.472;2023-11-21T11:48:37;-0.90;66.80
29403;DHT22;16382;59.942;30.472;2023-11-21T11:51:11;-1.00;66.40
29403;DHT22;16382;59.942;30.472;2023-11-21T11:53:41;-1.00;66.90
29403;DHT22;16382;59.942;30.472;2023-11-21T11:56:26;-0.90;66.50
29403;DHT22;16382;59.942;30.472;2023-11-21T11:59:00;-0.90;66.40
29403;DHT22;16382;59.942;30.472;2023-11-21T12:01:34;-0.90;66.40
29403;DHT22;16382;59.942;30.472;2023-11-21T12:04:23;-0.90;66.10
29403;DHT22;16382;59.942;30.472;2023-11-21T12:07:02;-0.90;66.20
29403;DHT22;16382;59.942;30.472;2023-11-21T12:09:32;-1.00;66.40
29403;DHT22;16382;59.942;30.472;2023-11-21T12:12:00;-1.00;66.70
29403;DHT22;16382;59.942;30.472;2023-11-21T12:14:28;-1.00;66.40
29403;DHT22;16382;59.942;30.472;2023-11-21T12:16:56;-1.00;66.60
29403;DHT22;16382;59.942;30.472;2023-11-21T12:19:23;-1.10;66.50
29403;DHT22;16382;59.942;30.472;2023-11-21T12:21:52;-1.10;66.80
29403;DHT22;16382;59.942;30.472;2023-11-21T12:24:24;-1.10;67.20
29403;DHT22;16382;59.942;30.472;2023-11-21T12:26:54;-1.10;67.00
29403;DHT22;16382;59.942;30.472;2023-11-21T12:29:22;-1.10;67.20
29403;DHT22;16382;59.942;30.472;2023-11-21T12:31:50;-1.10;67.50
29403;DHT22;16382;59.942;30.472;2023-11-21T12:34:20;-1.10;67.50
29403;DHT22;16382;59.942;30.472;2023-11-21T12:36:47;-1.10;67.60
29403;DHT22;16382;59.942;30.472;2023-11-21T12:39:15;-1.10;67.70
29403;DHT22;16382;59.942;30.472;2023-11-21T12:41:49;-1.10;68.90
29403;DHT22;16382;59.942;30.472;2023-11-21T12:44:17;-1.10;68.00
29403;DHT22;16382;59.942;30.472;2023-11-21T12:46:45;-1.00;68.10
29403;DHT22;16382;59.942;30.472;2023-11-21T12:49:12;-1.00;68.20
29403;DHT22;16382;59.942;30.472;2023-11-21T12:51:44;-1.00;67.70
29403;DHT22;16382;59.942;30.472;2023-11-21T12:54:13;-1.00;67.80
29403;DHT22;16382;59.942;30.472;2023-11-21T12:56:41;-1.00;67.80
29403;DHT22;16382;59.942;30.472;2023-11-21T12:59:22;-1.10;67.90
29403;DHT22;16382;59.942;30.472;2023-11-21T13:01:50;-1.20;68.20
29403;DHT22;16382;59.942;30.472;2023-11-21T13:04:18;-1.20;68.40
29403;DHT22;16382;59.942;30.472;2023-11-21T13:06:45;-1.20;68.50
29403;DHT22;16382;59.942;30.472;2023-11-21T13:09:13;-1.10;68.40
29403;DHT22;16382;59.942;30.472;2023-11-21T13:11:47;-1.00;67.80
29403;DHT22;16382;59.942;30.472;2023-11-21T13:14:16;-1.00;67.60
29403;DHT22;16382;59.942;30.472;2023-11-21T13:16:44;-0.90;66.70
29403;DHT22;16382;59.942;30.472;2023-11-21T13:19:12;-0.90;66.50
29403;DHT22;16382;59.942;30.472;2023-11-21T13:21:40;-1.00;66.60
29403;DHT22;16382;59.942;30.472;2023-11-21T13:24:08;-0.90;66.70
29403;DHT22;16382;59.942;30.472;2023-11-21T13:26:36;-1.00;66.30
29403;DHT22;16382;59.942;30.472;2023-11-21T13:29:04;-1.00;66.00
29403;DHT22;16382;59.942;30.472;2023-11-21T13:31:34;-1.00;65.90
29403;DHT22;16382;59.942;30.472;2023-11-21T13:34:03;-1.00;65.80
29403;DHT22;16382;59.942;30.472;2023-11-21T13:36:34;-1.00;66.40
29403;DHT22;16382;59.942;30.472;2023-11-21T13:39:02;-1.00;65.70
29403;DHT22;16382;59.942;30.472;2023-11-21T13:41:33;-1.00;66.10
29403;DHT22;16382;59.942;30.472;2023-11-21T13:44:04;-1.00;65.60
29403;DHT22;16382;59.942;30.472;2023-11-21T13:46:43;-1.00;65.50
29403;DHT22;16382;59.942;30.472;2023-11-21T13:49:11;-1.00;65.40
29403;DHT22;16382;59.942;30.472;2023-11-21T13:51:41;-0.90;65.30
29403;DHT22;16382;59.942;30.472;2023-11-21T13:55:00;-0.90;64.70
29403;DHT22;16382;59.942;30.472;2023-11-21T13:57:46;-1.00;65.10
29403;DHT22;16382;59.942;30.472;2023-11-21T14:01:01;-1.00;64.70
29403;DHT22;16382;59.942;30.472;2023-11-21T14:04:33;-0.90;64.80
29403;DHT22;16382;59.942;30.472;2023-11-21T14:07:25;-0.90;64.60
29403;DHT22;16382;59.942;30.472;2023-11-21T14:10:10;-0.90;64.30
29403;DHT22;16382;59.942;30.472;2023-11-21T14:13:32;-0.90;64.80
29403;DHT22;16382;59.942;30.472;2023-11-21T14:16:01;-1.00;65.50
29403;DHT22;16382;59.942;30.472;2023-11-21T14:18:40;-1.00;66.40
29403;DHT22;16382;59.942;30.472;2023-11-21T14:21:19;-1.00;65.80
29403;DHT22;16382;59.942;30.472;2023-11-21T14:23:51;-1.00;64.80
29403;DHT22;16382;59.942;30.472;2023-11-21T14:26:20;-1.00;64.30
29403;DHT22;16382;59.942;30.472;2023-11-21T14:28:50;-0.90;64.70
29403;DHT22;16382;59.942;30.472;2023-11-21T14:31:19;-0.90;64.40
29403;DHT22;16382;59.942;30.472;2023-11-21T14:33:50;-0.90;64.60
29403;DHT22;16382;59.942;30.472;2023-11-21T14:36:19;-0.90;64.40
29403;DHT22;16382;59.942;30.472;2023-11-21T14:38:48;-0.90;65.10
29403;DHT22;16382;59.942;30.472;2023-11-21T14:41:24;-0.90;67.10
29403;DHT22;16382;59.942;30.472;2023-11-21T14:43:54;-1.00;68.30
29403;DHT22;16382;59.942;30.472;2023-11-21T14:46:27;-1.00;68.60
29403;DHT22;16382;59.942;30.472;2023-11-21T14:49:01;-1.00;69.20
29403;DHT22;16382;59.942;30.472;2023-11-21T14:51:46;-1.00;69.10
29403;DHT22;16382;59.942;30.472;2023-11-21T14:54:31;-1.00;68.00
29403;DHT22;16382;59.942;30.472;2023-11-21T14:57:13;-0.90;67.90
29403;DHT22;16382;59.942;30.472;2023-11-21T14:59:44;-0.90;66.80
29403;DHT22;16382;59.942;30.472;2023-11-21T15:02:19;-0.80;66.10
29403;DHT22;16382;59.942;30.472;2023-11-21T15:04:48;-0.90;65.20
29403;DHT22;16382;59.942;30.472;2023-11-21T15:07:20;-0.80;65.30
29403;DHT22;16382;59.942;30.472;2023-11-21T15:09:49;-0.90;65.00
29403;DHT22;16382;59.942;30.472;2023-11-21T15:12:19;-0.90;64.90
29403;DHT22;16382;59.942;30.472;2023-11-21T15:14:50;-0.90;65.10
29403;DHT22;16382;59.942;30.472;2023-11-21T15:17:43;-0.90;65.30
29403;DHT22;16382;59.942;30.472;2023-11-21T15:20:11;-0.80;66.30
29403;DHT22;16382;59.942;30.472;2023-11-21T15:22:46;-0.80;65.80
29403;DHT22;16382;59.942;30.472;2023-11-21T15:25:13;-0.80;64.60
29403;DHT22;16382;59.942;30.472;2023-11-21T15:27:41;-0.80;65.00
29403;DHT22;16382;59.942;30.472;2023-11-21T15:30:09;-0.80;65.10
29403;DHT22;16382;59.942;30.472;2023-11-21T15:32:37;-0.70;64.80
29403;DHT22;16382;59.942;30.472;2023-11-21T15:35:06;-0.70;64.50